Time;durP1;ratioP1;P1;durP2;ratioP2;P2;SDS_P1;SDS_P2;PMS_P1;PMS_P2;Temp;Humidity;BMP_temperature;BMP_pressure;BME280_temperature;BME280_humidity;BME280_pressure;Samples;Min_cycle;Max_cycle;Signal;HPM_P1;HPM_P2
2022/05/08 00:02:09;;;;;;;;;;;;;;;;;;5037400;28;19917;-80
2022/05/08 00:04:35;;;;;;;;;;;;;;;;;;5017048;28;20080;-80
2022/05/08 00:07:01;;;;;;;;;;;;;;;;;;5015104;28;19966;-80
2022/05/08 00:09:26;;;;;;;;;;;;;;;;;;5038049;28;20353;-80
2022/05/08 00:11:52;;;;;;;;;;;;;;;;;;5017211;28;19943;-80
2022/05/08 00:14:19;;;;;;;;;;;;;;;;;;5034333;28;19963;-80
2022/05/08 00:16:45;;;;;;;;;;;;;;;;;;5017175;28;19956;-80
2022/05/08 00:19:11;;;;;;;;;;;;;;;;;;5025972;28;19919;-80
2022/05/08 00:21:39;;;;;;;;;;;;;;;;;;5015775;28;20453;-79
2022/05/08 00:24:05;;;;;;;;;;;;;;;;;;5023478;28;19912;-80
2022/05/08 00:26:31;;;;;;;;;;;;;;;;;;5033478;28;19927;-80
2022/05/08 00:28:56;;;;;;;;;;;;;;;;;;5020147;28;19920;-80
2022/05/08 00:31:23;;;;;;;;;;;;;;;;;;5020608;28;19963;-80
2022/05/08 00:33:50;;;;;;;;;;;;;;;;;;5044686;28;20023;-80
2022/05/08 00:36:16;;;;;;;;;;;;;;;;;;5022494;28;20338;-80
2022/05/08 00:38:42;;;;;;;;;;;;;;;;;;5038885;28;19920;-80
2022/05/08 00:41:08;;;;;;;;;;;;;;;;;;5012120;28;19917;-80
2022/05/08 00:43:34;;;;;;;;;;;;;;;;;;5021717;28;19913;-81
2022/05/08 00:46:00;;;;;;;;;;;;;;;;;;5018251;28;19927;-80
2022/05/08 00:48:25;;;;;;;;;;;;;;;;;;5000945;28;19921;-79
2022/05/08 00:50:52;;;;;;;;;;;;;;;;;;5006836;28;19914;-80
2022/05/08 00:53:18;;;;;;;;;;;;;;;;;;5020327;28;20028;-80
2022/05/08 00:55:43;;;;;;;;;;;;;;;;;;5000070;28;20004;-80
2022/05/08 00:58:09;;;;;;;;;;;;;;;;;;5014975;28;19921;-80
2022/05/08 01:00:35;;;;;;;;;;;;;;;;;;4998447;28;19971;-81
2022/05/08 01:03:01;;;;;;;;;;;;;;;;;;4996961;28;19928;-80
2022/05/08 01:05:27;;;;;;;;;;;;;;;;;;5001761;28;20112;-80
2022/05/08 01:07:53;;;;;;;;;;;;;;;;;;4997499;28;19917;-80
2022/05/08 01:10:19;;;;;;;;;;;;;;;;;;5018887;28;19924;-80
2022/05/08 01:12:45;;;;;;;;;;;;;;;;;;5001161;28;19931;-80
2022/05/08 01:15:11;;;;;;;;;;;;;;;;;;4998145;28;19940;-80
2022/05/08 01:17:37;;;;;;;;;;;;;;;;;;5005735;28;20292;-81
2022/05/08 01:20:03;;;;;;;;;;;;;;;;;;5022446;28;19967;-80
2022/05/08 01:22:29;;;;;;;;;;;;;;;;;;4997304;28;19913;-80
2022/05/08 01:24:55;;;;;;;;;;;;;;;;;;5019834;28;19936;-80
2022/05/08 01:27:21;;;;;;;;;;;;;;;;;;5016602;28;19921;-80
2022/05/08 01:29:47;;;;;;;;;;;;;;;;;;5019448;28;20028;-80
2022/05/08 01:32:12;;;;;;;;;;;;;;;;;;5009692;28;19922;-80
2022/05/08 01:34:38;;;;;;;;;;;;;;;;;;5017685;28;19920;-80
2022/05/08 01:37:04;;;;;;;;;;;;;;;;;;4999717;28;20293;-80
2022/05/08 01:39:30;;;;;;;;;;;;;;;;;;5005835;28;19921;-80
2022/05/08 01:41:56;;;;;;;;;;;;;;;;;;4997355;28;19924;-80
2022/05/08 01:44:24;;;;;;;;;;;;;;;;;;5001421;28;19913;-80
2022/05/08 01:48:21;;;;;;;;;;;;;;;;;;4996756;28;20424;-80
2022/05/08 01:49:42;;;;;;;;;;;;;;;;;;5014593;28;19992;-80
2022/05/08 01:52:08;;;;;;;;;;;;;;;;;;4987352;28;19975;-80
2022/05/08 01:54:35;;;;;;;;;;;;;;;;;;4996472;28;19992;-80
2022/05/08 01:57:00;;;;;;;;;;;;;;;;;;5012587;28;19921;-80
2022/05/08 01:59:26;;;;;;;;;;;;;;;;;;5010229;28;19918;-80
2022/05/08 02:01:52;;;;;;;;;;;;;;;;;;4992241;28;20332;-81
2022/05/08 02:04:18;;;;;;;;;;;;;;;;;;4996338;28;20289;-80
2022/05/08 02:06:44;;;;;;;;;;;;;;;;;;5015368;28;19922;-80
2022/05/08 02:09:10;;;;;;;;;;;;;;;;;;5017253;28;20320;-81
2022/05/08 02:11:36;;;;;;;;;;;;;;;;;;4995643;28;20004;-80
2022/05/08 02:14:06;;;;;;;;;;;;;;;;;;5001704;28;19913;-80
2022/05/08 02:16:32;;;;;;;;;;;;;;;;;;4994102;28;20377;-80
2022/05/08 02:18:58;;;;;;;;;;;;;;;;;;5001352;28;19940;-81
2022/05/08 02:21:24;;;;;;;;;;;;;;;;;;4999585;28;20371;-80
2022/05/08 02:23:50;;;;;;;;;;;;;;;;;;4996591;28;19917;-80
2022/05/08 02:26:16;;;;;;;;;;;;;;;;;;4995746;28;20395;-80
2022/05/08 02:28:42;;;;;;;;;;;;;;;;;;4998727;28;19955;-80
2022/05/08 02:31:08;;;;;;;;;;;;;;;;;;4995726;28;19920;-81
2022/05/08 02:33:34;;;;;;;;;;;;;;;;;;5010617;28;20489;-80
2022/05/08 02:36:00;;;;;;;;;;;;;;;;;;5010094;28;19917;-80
2022/05/08 02:38:25;;;;;;;;;;;;;;;;;;5013293;28;19929;-80
2022/05/08 02:40:51;;;;;;;;;;;;;;;;;;4993260;28;19924;-80
2022/05/08 02:43:21;;;;;;;;;;;;;;;;;;5010102;28;20835;-80
2022/05/08 02:45:47;;;;;;;;;;;;;;;;;;4990872;28;19940;-81
2022/05/08 02:48:13;;;;;;;;;;;;;;;;;;4999217;28;20365;-80
2022/05/08 02:50:39;;;;;;;;;;;;;;;;;;4994216;28;19971;-80
2022/05/08 02:53:05;;;;;;;;;;;;;;;;;;4996678;28;20238;-80
2022/05/08 02:58:34;;;;;;;;;;;;;;;;;;5014943;28;20015;-80
2022/05/08 03:01:00;;;;;;;;;;;;;;;;;;5011514;28;19952;-80
2022/05/08 03:03:26;;;;;;;;;;;;;;;;;;4995843;28;20357;-81
2022/05/08 03:05:51;;;;;;;;;;;;;;;;;;4994802;28;19928;-80
2022/05/08 03:08:17;;;;;;;;;;;;;;;;;;5014405;28;20035;-79
2022/05/08 03:13:29;;;;;;;;;;;;;;;;;;5011789;28;19931;-80
2022/05/08 03:15:55;;;;;;;;;;;;;;;;;;5000416;28;20372;-80
2022/05/08 03:18:21;;;;;;;;;;;;;;;;;;5000962;28;19925;-81
2022/05/08 03:20:48;;;;;;;;;;;;;;;;;;4993540;28;19917;-80
2022/05/08 03:23:17;;;;;;;;;;;;;;;;;;4994550;28;20008;-80
2022/05/08 03:25:43;;;;;;;;;;;;;;;;;;5003184;28;20375;-80
2022/05/08 03:28:09;;;;;;;;;;;;;;;;;;5012240;28;19917;-80
2022/05/08 03:30:35;;;;;;;;;;;;;;;;;;5001111;28;19917;-80
2022/05/08 03:33:01;;;;;;;;;;;;;;;;;;4995246;28;19925;-79
2022/05/08 03:35:27;;;;;;;;;;;;;;;;;;4997167;28;19918;-80
2022/05/08 03:37:53;;;;;;;;;;;;;;;;;;4996746;28;19925;-80
2022/05/08 03:40:19;;;;;;;;;;;;;;;;;;5000508;28;21492;-80
2022/05/08 03:42:45;;;;;;;;;;;;;;;;;;4998882;28;19947;-80
2022/05/08 03:45:11;;;;;;;;;;;;;;;;;;5010005;28;19914;-80
2022/05/08 03:47:37;;;;;;;;;;;;;;;;;;5009122;28;19925;-80
2022/05/08 03:50:06;;;;;;;;;;;;;;;;;;5018883;28;20020;-80
2022/05/08 03:52:32;;;;;;;;;;;;;;;;;;5029215;28;19916;-80
2022/05/08 03:54:59;;;;;;;;;;;;;;;;;;5012236;28;19917;-80
2022/05/08 03:57:26;;;;;;;;;;;;;;;;;;5033169;28;20430;-80
2022/05/08 03:59:52;;;;;;;;;;;;;;;;;;5031358;28;19916;-80
2022/05/08 04:02:18;;;;;;;;;;;;;;;;;;5015846;28;19916;-80
2022/05/08 04:04:44;;;;;;;;;;;;;;;;;;5015803;28;19916;-80
2022/05/08 04:07:12;;;;;;;;;;;;;;;;;;5017131;28;19916;-81
2022/05/08 04:09:38;;;;;;;;;;;;;;;;;;5034819;28;19924;-80
2022/05/08 04:12:04;;;;;;;;;;;;;;;;;;5039781;28;19920;-80
2022/05/08 04:14:30;;;;;;;;;;;;;;;;;;5017373;28;19921;-80
2022/05/08 04:16:56;;;;;;;;;;;;;;;;;;5036056;28;19924;-80
2022/05/08 04:19:22;;;;;;;;;;;;;;;;;;5019635;28;19917;-80
2022/05/08 04:21:48;;;;;;;;;;;;;;;;;;5018136;28;19921;-80
2022/05/08 04:24:17;;;;;;;;;;;;;;;;;;5017870;28;20304;-80
2022/05/08 04:26:43;;;;;;;;;;;;;;;;;;5020735;28;19920;-80
2022/05/08 04:29:09;;;;;;;;;;;;;;;;;;5018454;28;19916;-80
2022/05/08 04:31:35;;;;;;;;;;;;;;;;;;5018397;28;20205;-80
2022/05/08 04:34:01;;;;;;;;;;;;;;;;;;5038771;28;19917;-80
2022/05/08 04:36:27;;;;;;;;;;;;;;;;;;5014267;28;19920;-80
2022/05/08 04:38:53;;;;;;;;;;;;;;;;;;5034902;28;21206;-80
2022/05/08 04:41:19;;;;;;;;;;;;;;;;;;5034113;28;19942;-80
2022/05/08 04:43:45;;;;;;;;;;;;;;;;;;5013634;28;20717;-80
2022/05/08 04:46:11;;;;;;;;;;;;;;;;;;5032244;28;20075;-80
2022/05/08 04:48:43;;;;;;;;;;;;;;;;;;5020713;28;19925;-80
2022/05/08 04:51:09;;;;;;;;;;;;;;;;;;5022570;28;19917;-80
2022/05/08 04:53:35;;;;;;;;;;;;;;;;;;5037223;28;19981;-80
2022/05/08 04:56:01;;;;;;;;;;;;;;;;;;5043230;28;19912;-80
2022/05/08 04:58:29;;;;;;;;;;;;;;;;;;5039874;28;19924;-80
2022/05/08 05:00:55;;;;;;;;;;;;;;;;;;5044882;28;20017;-80
2022/05/08 05:03:20;;;;;;;;;;;;;;;;;;5038951;28;19970;-80
2022/05/08 05:05:46;;;;;;;;;;;;;;;;;;5049591;28;19916;-80
2022/05/08 05:08:12;;;;;;;;;;;;;;;;;;5049403;28;20376;-80
2022/05/08 05:10:38;;;;;;;;;;;;;;;;;;5034297;28;19941;-80
2022/05/08 05:13:04;;;;;;;;;;;;;;;;;;5060028;28;19926;-80
2022/05/08 05:15:30;;;;;;;;;;;;;;;;;;5045864;28;19916;-80
2022/05/08 05:17:58;;;;;;;;;;;;;;;;;;5040357;28;21028;-80
2022/05/08 05:20:24;;;;;;;;;;;;;;;;;;5041495;28;19917;-81
2022/05/08 05:22:50;;;;;;;;;;;;;;;;;;5059871;28;19923;-80
2022/05/08 05:25:15;;;;;;;;;;;;;;;;;;5039428;28;20015;-80
2022/05/08 05:27:41;;;;;;;;;;;;;;;;;;5042284;28;20025;-80
2022/05/08 05:30:09;;;;;;;;;;;;;;;;;;5046873;28;20290;-80
2022/05/08 05:32:34;;;;;;;;;;;;;;;;;;5044236;28;20395;-80
2022/05/08 05:35:00;;;;;;;;;;;;;;;;;;5040603;28;19921;-79
2022/05/08 05:37:26;;;;;;;;;;;;;;;;;;5041879;28;19973;-80
2022/05/08 05:39:52;;;;;;;;;;;;;;;;;;5040474;28;19929;-80
2022/05/08 05:42:18;;;;;;;;;;;;;;;;;;5042478;28;19920;-80
2022/05/08 05:44:44;;;;;;;;;;;;;;;;;;5041429;28;19920;-80
2022/05/08 05:49:55;;;;;;;;;;;;;;;;;;5037954;28;19974;-80
2022/05/08 05:52:22;;;;;;;;;;;;;;;;;;5027649;28;20378;-80
2022/05/08 05:54:48;;;;;;;;;;;;;;;;;;5018510;28;20295;-81
2022/05/08 05:57:14;;;;;;;;;;;;;;;;;;5019867;28;20299;-80
2022/05/08 05:59:39;;;;;;;;;;;;;;;;;;5029558;28;19921;-80
2022/05/08 06:02:05;;;;;;;;;;;;;;;;;;5019853;28;19916;-80
2022/05/08 06:04:31;;;;;;;;;;;;;;;;;;5029066;28;19967;-80
2022/05/08 06:06:57;;;;;;;;;;;;;;;;;;5027189;28;19924;-80
2022/05/08 06:09:23;;;;;;;;;;;;;;;;;;5042190;28;20431;-79
2022/05/08 06:11:49;;;;;;;;;;;;;;;;;;5031258;28;19978;-80
2022/05/08 06:14:15;;;;;;;;;;;;;;;;;;5011453;28;19964;-80
2022/05/08 06:16:42;;;;;;;;;;;;;;;;;;5033911;28;20529;-80
2022/05/08 06:19:08;;;;;;;;;;;;;;;;;;5039230;28;19921;-80
2022/05/08 06:21:34;;;;;;;;;;;;;;;;;;5033407;28;19920;-80
2022/05/08 06:24:00;;;;;;;;;;;;;;;;;;5041753;28;20342;-80
2022/05/08 06:26:26;;;;;;;;;;;;;;;;;;5025675;28;19921;-81
2022/05/08 06:28:54;;;;;;;;;;;;;;;;;;5037021;28;19944;-80
2022/05/08 06:31:21;;;;;;;;;;;;;;;;;;5021162;28;19921;-80
2022/05/08 06:33:47;;;;;;;;;;;;;;;;;;5037359;28;19917;-79
2022/05/08 06:36:13;;;;;;;;;;;;;;;;;;5022574;28;19940;-79
2022/05/08 06:38:38;;;;;;;;;;;;;;;;;;5032294;28;20393;-79
2022/05/08 06:41:04;;;;;;;;;;;;;;;;;;5037491;28;19924;-79
2022/05/08 06:43:30;;;;;;;;;;;;;;;;;;5040956;28;19928;-79
2022/05/08 06:45:56;;;;;;;;;;;;;;;;;;5020539;28;20517;-79
2022/05/08 06:48:22;;;;;;;;;;;;;;;;;;5009546;28;19932;-79
2022/05/08 06:50:48;;;;;;;;;;;;;;;;;;5014272;28;19963;-79
2022/05/08 06:53:14;;;;;;;;;;;;;;;;;;5011161;28;19925;-79
2022/05/08 06:55:42;;;;;;;;;;;;;;;;;;5001207;28;20601;-80
2022/05/08 06:58:08;;;;;;;;;;;;;;;;;;4998574;28;19928;-79
2022/05/08 07:03:19;;;;;;;;;;;;;;;;;;5002737;28;19968;-79
2022/05/08 07:05:45;;;;;;;;;;;;;;;;;;4994686;28;19918;-79
2022/05/08 07:08:11;;;;;;;;;;;;;;;;;;5010672;28;19917;-79
2022/05/08 07:10:37;;;;;;;;;;;;;;;;;;4995499;28;19924;-79
2022/05/08 07:13:03;;;;;;;;;;;;;;;;;;5013661;28;19929;-79
2022/05/08 07:15:29;;;;;;;;;;;;;;;;;;5017864;28;19973;-79
2022/05/08 07:17:55;;;;;;;;;;;;;;;;;;4990554;28;19917;-80
2022/05/08 07:20:22;;;;;;;;;;;;;;;;;;4998426;28;19949;-80
2022/05/08 07:22:47;;;;;;;;;;;;;;;;;;5007126;28;20277;-80
2022/05/08 07:25:13;;;;;;;;;;;;;;;;;;4996438;28;19913;-79
2022/05/08 07:27:40;;;;;;;;;;;;;;;;;;4999216;28;22245;-79
2022/05/08 07:30:05;;;;;;;;;;;;;;;;;;4998937;28;20671;-79
2022/05/08 07:32:31;;;;;;;;;;;;;;;;;;4999243;28;19972;-79
2022/05/08 07:37:43;;;;;;;;;;;;;;;;;;5016541;28;19971;-79
2022/05/08 07:40:09;;;;;;;;;;;;;;;;;;5016140;28;19913;-80
2022/05/08 07:42:36;;;;;;;;;;;;;;;;;;5005755;28;20378;-79
2022/05/08 07:45:01;;;;;;;;;;;;;;;;;;5015170;28;20057;-79
2022/05/08 07:47:27;;;;;;;;;;;;;;;;;;5021644;28;20300;-79
2022/05/08 07:50:00;;;;;;;;;;;;;;;;;;5003181;28;19921;-79
2022/05/08 07:52:26;;;;;;;;;;;;;;;;;;5015947;28;20352;-79
2022/05/08 07:54:52;;;;;;;;;;;;;;;;;;5016668;28;19928;-79
2022/05/08 07:57:18;;;;;;;;;;;;;;;;;;5003944;28;20430;-79
2022/05/08 07:59:43;;;;;;;;;;;;;;;;;;4999537;28;19913;-79
2022/05/08 08:02:09;;;;;;;;;;;;;;;;;;4997292;28;19920;-79
2022/05/08 08:04:36;;;;;;;;;;;;;;;;;;4999492;28;19941;-79
2022/05/08 08:07:02;;;;;;;;;;;;;;;;;;4999012;28;20246;-80
2022/05/08 08:09:28;;;;;;;;;;;;;;;;;;5012800;28;20016;-79
2022/05/08 08:11:53;;;;;;;;;;;;;;;;;;5002662;28;19922;-79
2022/05/08 08:14:19;;;;;;;;;;;;;;;;;;5004616;28;19921;-79
2022/05/08 08:16:45;;;;;;;;;;;;;;;;;;5003654;28;19956;-80
2022/05/08 08:19:11;;;;;;;;;;;;;;;;;;5008732;28;20362;-79
2022/05/08 08:21:37;;;;;;;;;;;;;;;;;;5018320;28;19917;-79
2022/05/08 08:24:03;;;;;;;;;;;;;;;;;;4999895;28;19959;-79
2022/05/08 08:26:29;;;;;;;;;;;;;;;;;;5018052;28;20368;-79
2022/05/08 08:28:55;;;;;;;;;;;;;;;;;;5025364;28;19913;-79
2022/05/08 08:31:21;;;;;;;;;;;;;;;;;;5002805;28;20438;-79
2022/05/08 08:33:48;;;;;;;;;;;;;;;;;;5019965;28;19923;-79
2022/05/08 08:36:14;;;;;;;;;;;;;;;;;;5015836;28;20369;-79
2022/05/08 08:38:40;;;;;;;;;;;;;;;;;;4999724;28;20089;-79
2022/05/08 08:41:06;;;;;;;;;;;;;;;;;;4997708;28;20288;-79
2022/05/08 08:49:02;;;;;;;;;;;;;;;;;;5032219;28;20370;-79
2022/05/08 08:51:27;;;;;;;;;;;;;;;;;;5031463;28;19983;-79
2022/05/08 08:53:54;;;;;;;;;;;;;;;;;;5035422;28;19956;-79
2022/05/08 08:56:20;;;;;;;;;;;;;;;;;;5016822;28;20475;-79
2022/05/08 08:58:46;;;;;;;;;;;;;;;;;;5012598;28;20015;-79
2022/05/08 09:01:12;;;;;;;;;;;;;;;;;;5035711;28;19938;-79
2022/05/08 09:03:38;;;;;;;;;;;;;;;;;;5019131;28;19963;-79
2022/05/08 09:06:06;;;;;;;;;;;;;;;;;;5014185;28;19995;-79
2022/05/08 09:08:32;;;;;;;;;;;;;;;;;;5018274;28;19986;-79
2022/05/08 09:10:58;;;;;;;;;;;;;;;;;;5013946;28;20369;-80
2022/05/08 09:13:24;;;;;;;;;;;;;;;;;;5014007;28;19921;-79
2022/05/08 09:15:50;;;;;;;;;;;;;;;;;;5031770;28;20388;-80
2022/05/08 09:18:16;;;;;;;;;;;;;;;;;;5033088;28;20404;-80
2022/05/08 09:20:43;;;;;;;;;;;;;;;;;;5016352;28;19920;-80
2022/05/08 09:23:09;;;;;;;;;;;;;;;;;;5017332;28;19916;-79
2022/05/08 09:25:35;;;;;;;;;;;;;;;;;;5016186;28;19961;-80
2022/05/08 09:28:01;;;;;;;;;;;;;;;;;;5011036;28;20499;-79
2022/05/08 09:30:27;;;;;;;;;;;;;;;;;;5018702;28;19917;-79
2022/05/08 09:32:53;;;;;;;;;;;;;;;;;;5011289;28;19921;-78
2022/05/08 09:35:19;;;;;;;;;;;;;;;;;;5018162;28;19921;-78
2022/05/08 09:37:45;;;;;;;;;;;;;;;;;;5026602;28;19917;-78
2022/05/08 09:40:11;;;;;;;;;;;;;;;;;;5037002;28;19913;-79
2022/05/08 09:42:37;;;;;;;;;;;;;;;;;;5014784;28;20375;-78
2022/05/08 09:45:03;;;;;;;;;;;;;;;;;;5017465;28;19917;-78
2022/05/08 09:47:29;;;;;;;;;;;;;;;;;;5014352;28;20376;-79
2022/05/08 09:49:55;;;;;;;;;;;;;;;;;;5015631;28;20399;-78
2022/05/08 09:52:21;;;;;;;;;;;;;;;;;;5016469;28;19948;-79
2022/05/08 09:54:47;;;;;;;;;;;;;;;;;;5001631;28;20042;-79
2022/05/08 09:57:13;;;;;;;;;;;;;;;;;;4992599;28;19917;-79
2022/05/08 09:59:39;;;;;;;;;;;;;;;;;;5003943;28;19940;-79
2022/05/08 10:02:05;;;;;;;;;;;;;;;;;;5016465;28;19921;-79
2022/05/08 10:04:35;;;;;;;;;;;;;;;;;;5006409;28;20007;-80
2022/05/08 10:07:00;;;;;;;;;;;;;;;;;;5024916;28;19924;-79
2022/05/08 10:14:56;;;;;;;;;;;;;;;;;;5021363;28;19916;-79
2022/05/08 10:17:22;;;;;;;;;;;;;;;;;;5003091;28;20369;-81
2022/05/08 10:19:48;;;;;;;;;;;;;;;;;;5003667;28;20287;-79
2022/05/08 10:22:14;;;;;;;;;;;;;;;;;;5017589;28;19917;-79
2022/05/08 10:24:40;;;;;;;;;;;;;;;;;;4998451;28;19914;-79
2022/05/08 10:27:05;;;;;;;;;;;;;;;;;;5013101;28;20669;-78
2022/05/08 10:29:31;;;;;;;;;;;;;;;;;;5013303;28;19921;-78
2022/05/08 10:31:57;;;;;;;;;;;;;;;;;;5008282;28;19917;-78
2022/05/08 10:34:23;;;;;;;;;;;;;;;;;;5002277;28;19948;-78
2022/05/08 10:36:49;;;;;;;;;;;;;;;;;;5011037;28;20004;-78
2022/05/08 10:39:15;;;;;;;;;;;;;;;;;;5009514;28;19921;-79
2022/05/08 10:41:41;;;;;;;;;;;;;;;;;;5015661;28;19921;-78
2022/05/08 10:44:07;;;;;;;;;;;;;;;;;;5001626;28;20007;-77
2022/05/08 10:46:34;;;;;;;;;;;;;;;;;;5007721;28;19919;-78
2022/05/08 10:49:00;;;;;;;;;;;;;;;;;;5015314;28;19931;-79
2022/05/08 10:51:26;;;;;;;;;;;;;;;;;;5022281;28;20292;-78
2022/05/08 10:53:52;;;;;;;;;;;;;;;;;;5034299;28;19916;-78
2022/05/08 10:56:18;;;;;;;;;;;;;;;;;;5032823;28;20364;-78
2022/05/08 10:58:44;;;;;;;;;;;;;;;;;;5019580;28;20430;-79
2022/05/08 11:01:10;;;;;;;;;;;;;;;;;;5018413;28;20063;-79
2022/05/08 11:03:35;;;;;;;;;;;;;;;;;;5016005;28;20032;-79
2022/05/08 11:06:01;;;;;;;;;;;;;;;;;;5025548;28;20387;-79
2022/05/08 11:08:28;;;;;;;;;;;;;;;;;;5013964;28;20376;-79
2022/05/08 11:10:54;;;;;;;;;;;;;;;;;;5015474;28;19921;-79
2022/05/08 11:13:21;;;;;;;;;;;;;;;;;;5032243;28;20377;-79
2022/05/08 11:15:48;;;;;;;;;;;;;;;;;;5019851;28;19916;-78
2022/05/08 11:18:15;;;;;;;;;;;;;;;;;;5014966;28;20410;-78
2022/05/08 11:20:41;;;;;;;;;;;;;;;;;;5026101;28;19917;-77
2022/05/08 11:23:07;;;;;;;;;;;;;;;;;;5013842;28;20384;-77
2022/05/08 11:25:32;;;;;;;;;;;;;;;;;;5014358;28;20032;-78
2022/05/08 11:27:58;;;;;;;;;;;;;;;;;;5015662;28;19913;-77
2022/05/08 11:30:24;;;;;;;;;;;;;;;;;;5015104;28;20346;-78
2022/05/08 11:38:22;;;;;;;;;;;;;;;;;;5034110;28;20691;-77
2022/05/08 11:40:48;;;;;;;;;;;;;;;;;;5011665;28;19923;-77
2022/05/08 11:43:14;;;;;;;;;;;;;;;;;;5010687;28;20279;-78
2022/05/08 11:45:40;;;;;;;;;;;;;;;;;;5014666;28;19995;-78
2022/05/08 11:48:06;;;;;;;;;;;;;;;;;;5026701;28;19966;-77
2022/05/08 11:50:32;;;;;;;;;;;;;;;;;;4990973;28;19924;-78
2022/05/08 11:52:58;;;;;;;;;;;;;;;;;;5003535;28;19952;-78
2022/05/08 11:55:23;;;;;;;;;;;;;;;;;;5011408;28;20277;-78
2022/05/08 11:57:50;;;;;;;;;;;;;;;;;;5007666;28;19921;-78
2022/05/08 12:00:16;;;;;;;;;;;;;;;;;;4997172;28;20335;-82
2022/05/08 12:02:42;;;;;;;;;;;;;;;;;;4991923;28;20508;-78
2022/05/08 12:05:08;;;;;;;;;;;;;;;;;;5007676;28;20361;-78
2022/05/08 12:07:34;;;;;;;;;;;;;;;;;;5010124;28;19921;-78
2022/05/08 12:10:00;;;;;;;;;;;;;;;;;;5000228;28;19932;-79
2022/05/08 12:12:27;;;;;;;;;;;;;;;;;;4995219;28;20280;-91
2022/05/08 12:14:53;;;;;;;;;;;;;;;;;;4995091;28;19913;-84
2022/05/08 12:17:19;;;;;;;;;;;;;;;;;;4995397;28;19921;-81
2022/05/08 12:19:45;;;;;;;;;;;;;;;;;;4995156;28;19917;-85
2022/05/08 12:22:11;;;;;;;;;;;;;;;;;;4994880;28;19917;-79
2022/05/08 12:24:38;;;;;;;;;;;;;;;;;;4995516;28;19944;-85
2022/05/08 12:27:04;;;;;;;;;;;;;;;;;;4987167;28;20365;-77
2022/05/08 12:29:30;;;;;;;;;;;;;;;;;;4993697;28;20013;-78
2022/05/08 12:31:56;;;;;;;;;;;;;;;;;;4994892;28;19917;-78
2022/05/08 12:34:22;;;;;;;;;;;;;;;;;;5014043;28;19979;-79
2022/05/08 12:36:48;;;;;;;;;;;;;;;;;;4988519;28;19917;-78
2022/05/08 12:39:14;;;;;;;;;;;;;;;;;;5011224;28;19936;-78
2022/05/08 12:41:40;;;;;;;;;;;;;;;;;;4992544;28;20019;-79
2022/05/08 12:44:06;;;;;;;;;;;;;;;;;;5000200;28;19952;-82
2022/05/08 12:46:32;;;;;;;;;;;;;;;;;;5024127;28;20392;-78
2022/05/08 12:49:05;;;;;;;;;;;;;;;;;;5015247;28;19924;-78
2022/05/08 12:51:30;;;;;;;;;;;;;;;;;;5016799;28;19923;-77
2022/05/08 12:53:57;;;;;;;;;;;;;;;;;;5018843;28;20548;-78
2022/05/08 12:56:23;;;;;;;;;;;;;;;;;;5034616;28;20004;-78
2022/05/08 13:01:34;;;;;;;;;;;;;;;;;;5030995;28;19920;-77
2022/05/08 13:04:00;;;;;;;;;;;;;;;;;;5025187;28;19916;-78
2022/05/08 13:06:26;;;;;;;;;;;;;;;;;;5013191;28;19921;-78
2022/05/08 13:08:53;;;;;;;;;;;;;;;;;;5034280;28;20037;-78
2022/05/08 13:11:19;;;;;;;;;;;;;;;;;;5022874;28;19921;-79
2022/05/08 13:13:45;;;;;;;;;;;;;;;;;;5015040;28;19924;-78
2022/05/08 13:16:14;;;;;;;;;;;;;;;;;;5015063;28;19920;-79
2022/05/08 13:18:40;;;;;;;;;;;;;;;;;;5015879;28;19924;-78
2022/05/08 13:21:06;;;;;;;;;;;;;;;;;;5037725;28;19917;-78
2022/05/08 13:23:32;;;;;;;;;;;;;;;;;;5019123;28;20011;-79
2022/05/08 13:25:58;;;;;;;;;;;;;;;;;;5033310;28;19917;-78
2022/05/08 13:28:23;;;;;;;;;;;;;;;;;;5016164;28;19917;-78
2022/05/08 13:30:49;;;;;;;;;;;;;;;;;;5029503;28;24882;-81
2022/05/08 13:33:15;;;;;;;;;;;;;;;;;;5030229;28;20371;-81
2022/05/08 13:35:41;;;;;;;;;;;;;;;;;;5037595;28;19925;-78
2022/05/08 13:38:07;;;;;;;;;;;;;;;;;;5028815;28;19913;-78
2022/05/08 13:40:33;;;;;;;;;;;;;;;;;;5012280;28;19924;-79
2022/05/08 13:42:59;;;;;;;;;;;;;;;;;;5020451;28;19927;-78
2022/05/08 13:45:25;;;;;;;;;;;;;;;;;;5039033;28;19916;-79
2022/05/08 13:47:51;;;;;;;;;;;;;;;;;;5013576;28;19966;-79
2022/05/08 13:50:23;;;;;;;;;;;;;;;;;;5007346;28;20071;-78
2022/05/08 13:52:49;;;;;;;;;;;;;;;;;;4998094;28;20004;-78
2022/05/08 13:55:17;;;;;;;;;;;;;;;;;;5016125;28;20028;-78
2022/05/08 13:57:43;;;;;;;;;;;;;;;;;;5010870;28;19929;-80
2022/05/08 14:00:14;;;;;;;;;;;;;;;;;;4992390;28;19917;-78
2022/05/08 14:02:40;;;;;;;;;;;;;;;;;;4995023;28;19917;-78
2022/05/08 14:05:06;;;;;;;;;;;;;;;;;;4997883;28;19925;-79
2022/05/08 14:07:32;;;;;;;;;;;;;;;;;;5012673;28;19947;-78
2022/05/08 14:09:57;;;;;;;;;;;;;;;;;;4998280;28;20000;-78
2022/05/08 14:12:23;;;;;;;;;;;;;;;;;;4995273;28;19980;-78
2022/05/08 14:14:49;;;;;;;;;;;;;;;;;;4992383;28;19917;-78
2022/05/08 14:17:15;;;;;;;;;;;;;;;;;;5015120;28;19922;-78
2022/05/08 14:19:41;;;;;;;;;;;;;;;;;;5016956;28;19917;-78
2022/05/08 14:22:07;;;;;;;;;;;;;;;;;;5012870;28;19913;-78
2022/05/08 14:24:34;;;;;;;;;;;;;;;;;;5011989;28;19917;-78
2022/05/08 14:27:01;;;;;;;;;;;;;;;;;;5012417;28;20383;-78
2022/05/08 14:29:27;;;;;;;;;;;;;;;;;;4995460;28;20095;-78
2022/05/08 14:37:22;;;;;;;;;;;;;;;;;;5008326;28;20436;-78
2022/05/08 14:39:48;;;;;;;;;;;;;;;;;;5013767;28;19913;-78
2022/05/08 14:42:14;;;;;;;;;;;;;;;;;;4994182;28;19964;-78
2022/05/08 14:44:40;;;;;;;;;;;;;;;;;;4990783;28;20365;-78
2022/05/08 14:47:06;;;;;;;;;;;;;;;;;;4993508;28;19932;-78
2022/05/08 14:49:32;;;;;;;;;;;;;;;;;;4994016;28;19926;-78
2022/05/08 14:51:58;;;;;;;;;;;;;;;;;;5001738;28;20335;-79
2022/05/08 14:54:24;;;;;;;;;;;;;;;;;;5014286;28;20012;-79
2022/05/08 14:56:50;;;;;;;;;;;;;;;;;;5015081;28;19917;-78
2022/05/08 14:59:16;;;;;;;;;;;;;;;;;;5006755;28;20314;-78
2022/05/08 15:01:42;;;;;;;;;;;;;;;;;;4997129;28;19917;-78
2022/05/08 15:04:08;;;;;;;;;;;;;;;;;;5010584;28;20327;-79
2022/05/08 15:06:34;;;;;;;;;;;;;;;;;;5019995;28;19955;-79
2022/05/08 15:09:01;;;;;;;;;;;;;;;;;;5020253;28;19931;-80
2022/05/08 15:11:27;;;;;;;;;;;;;;;;;;5013537;28;19918;-78
2022/05/08 15:13:53;;;;;;;;;;;;;;;;;;5022230;28;19976;-78
2022/05/08 15:16:19;;;;;;;;;;;;;;;;;;5016287;28;20349;-78
2022/05/08 15:18:48;;;;;;;;;;;;;;;;;;4999548;28;19925;-78
2022/05/08 15:21:14;;;;;;;;;;;;;;;;;;4996222;28;19917;-79
2022/05/08 15:23:44;;;;;;;;;;;;;;;;;;4999509;28;19924;-78
2022/05/08 15:26:10;;;;;;;;;;;;;;;;;;4999738;28;19913;-78
2022/05/08 15:28:36;;;;;;;;;;;;;;;;;;5016120;28;19953;-78
2022/05/08 15:31:02;;;;;;;;;;;;;;;;;;4992281;28;20320;-79
2022/05/08 15:33:28;;;;;;;;;;;;;;;;;;4997301;28;19917;-78
2022/05/08 15:35:54;;;;;;;;;;;;;;;;;;5008115;28;19922;-78
2022/05/08 15:38:20;;;;;;;;;;;;;;;;;;4991121;28;19920;-78
2022/05/08 15:40:46;;;;;;;;;;;;;;;;;;4997492;28;19981;-78
2022/05/08 15:43:14;;;;;;;;;;;;;;;;;;4991496;28;20234;-78
2022/05/08 15:45:41;;;;;;;;;;;;;;;;;;5009994;28;19964;-78
2022/05/08 15:48:06;;;;;;;;;;;;;;;;;;4994828;28;19924;-78
2022/05/08 15:50:33;;;;;;;;;;;;;;;;;;5015704;28;19921;-78
2022/05/08 15:52:58;;;;;;;;;;;;;;;;;;5022683;28;19921;-78
2022/05/08 15:55:26;;;;;;;;;;;;;;;;;;5014417;28;19916;-78
2022/05/08 15:57:52;;;;;;;;;;;;;;;;;;5009345;28;20039;-78
2022/05/08 16:00:18;;;;;;;;;;;;;;;;;;5002956;28;20000;-78
2022/05/08 16:02:44;;;;;;;;;;;;;;;;;;5021537;28;19913;-78
2022/05/08 16:05:10;;;;;;;;;;;;;;;;;;5006146;28;19983;-78
2022/05/08 16:07:36;;;;;;;;;;;;;;;;;;4997251;28;19913;-78
2022/05/08 16:10:02;;;;;;;;;;;;;;;;;;5003126;28;19992;-78
2022/05/08 16:23:11;;;;;;;;;;;;;;;;;;5002906;28;20349;-78
2022/05/08 16:23:28;;;;;;;;;;;;;;;;;;5023107;28;19971;-77
2022/05/08 16:25:54;;;;;;;;;;;;;;;;;;4999412;28;19917;-77
2022/05/08 16:28:20;;;;;;;;;;;;;;;;;;5020861;28;19925;-78
2022/05/08 16:30:47;;;;;;;;;;;;;;;;;;5018817;28;19917;-78
2022/05/08 16:33:12;;;;;;;;;;;;;;;;;;5005306;28;19917;-78
2022/05/08 16:35:39;;;;;;;;;;;;;;;;;;5019457;28;19921;-78
2022/05/08 16:38:05;;;;;;;;;;;;;;;;;;5000888;28;19921;-79
2022/05/08 16:40:31;;;;;;;;;;;;;;;;;;5006471;28;20416;-77
2022/05/08 16:42:59;;;;;;;;;;;;;;;;;;5015436;28;19917;-78
2022/05/08 16:45:25;;;;;;;;;;;;;;;;;;5001196;28;20031;-79
2022/05/08 16:47:51;;;;;;;;;;;;;;;;;;5009358;28;20408;-77
2022/05/08 16:50:17;;;;;;;;;;;;;;;;;;5023629;28;19927;-77
2022/05/08 16:52:43;;;;;;;;;;;;;;;;;;5017878;28;19921;-76
2022/05/08 16:55:09;;;;;;;;;;;;;;;;;;5022574;28;19913;-76
2022/05/08 16:57:35;;;;;;;;;;;;;;;;;;5014398;28;20100;-77
2022/05/08 17:00:01;;;;;;;;;;;;;;;;;;5043329;28;20312;-77
2022/05/08 17:02:27;;;;;;;;;;;;;;;;;;5020355;28;19917;-77
2022/05/08 17:04:53;;;;;;;;;;;;;;;;;;5015789;28;19949;-77
2022/05/08 17:07:19;;;;;;;;;;;;;;;;;;5027394;28;19955;-76
2022/05/08 17:09:45;;;;;;;;;;;;;;;;;;5040191;28;19920;-77
2022/05/08 17:12:12;;;;;;;;;;;;;;;;;;5014925;28;19923;-77
2022/05/08 17:14:38;;;;;;;;;;;;;;;;;;5024660;28;20448;-77
2022/05/08 17:17:04;;;;;;;;;;;;;;;;;;5033939;28;19924;-77
2022/05/08 17:19:30;;;;;;;;;;;;;;;;;;5015087;28;20414;-76
2022/05/08 17:21:55;;;;;;;;;;;;;;;;;;5019553;28;19953;-76
2022/05/08 17:24:24;;;;;;;;;;;;;;;;;;5038315;28;20277;-76
2022/05/08 17:29:34;;;;;;;;;;;;;;;;;;5034110;28;20184;-76